sensor_id;sensor_type;location;lat;lon;timestamp;temperature;humidity
55004;DHT22;40900;52.710;6.438;2023-02-01T00:01:28;5.50;99.90
55004;DHT22;40900;52.710;6.438;2023-02-01T00:03:53;5.50;99.90
55004;DHT22;40900;52.710;6.438;2023-02-01T00:06:19;5.50;99.90
55004;DHT22;40900;52.710;6.438;2023-02-01T00:08:45;5.40;99.90
55004;DHT22;40900;52.710;6.438;2023-02-01T00:11:12;5.50;99.90
55004;DHT22;40900;52.710;6.438;2023-02-01T00:13:40;5.50;99.90
55004;DHT22;40900;52.710;6.438;2023-02-01T00:16:08;5.60;99.90
55004;DHT22;40900;52.710;6.438;2023-02-01T00:18:35;5.50;99.90
55004;DHT22;40900;52.710;6.438;2023-02-01T00:21:01;5.50;99.90
55004;DHT22;40900;52.710;6.438;2023-02-01T00:23:27;5.50;99.90
55004;DHT22;40900;52.710;6.438;2023-02-01T00:25:53;5.50;99.90
55004;DHT22;40900;52.710;6.438;2023-02-01T00:28:19;5.50;99.90
55004;DHT22;40900;52.710;6.438;2023-02-01T00:30:44;5.60;99.90
55004;DHT22;40900;52.710;6.438;2023-02-01T00:33:10;5.50;99.90
55004;DHT22;40900;52.710;6.438;2023-02-01T00:35:36;5.50;99.90
55004;DHT22;40900;52.710;6.438;2023-02-01T00:38:02;5.50;99.90
55004;DHT22;40900;52.710;6.438;2023-02-01T00:40:28;5.50;99.90
55004;DHT22;40900;52.710;6.438;2023-02-01T00:42:54;5.50;99.90
55004;DHT22;40900;52.710;6.438;2023-02-01T00:45:20;5.50;99.90
55004;DHT22;40900;52.710;6.438;2023-02-01T00:47:45;5.50;99.90
55004;DHT22;40900;52.710;6.438;2023-02-01T00:50:11;5.50;99.90
55004;DHT22;40900;52.710;6.438;2023-02-01T00:52:37;5.50;99.90
55004;DHT22;40900;52.710;6.438;2023-02-01T00:55:03;5.40;99.90
55004;DHT22;40900;52.710;6.438;2023-02-01T00:57:28;5.50;99.90
55004;DHT22;40900;52.710;6.438;2023-02-01T00:59:54;5.50;99.90
55004;DHT22;40900;52.710;6.438;2023-02-01T01:02:20;5.50;99.90
55004;DHT22;40900;52.710;6.438;2023-02-01T01:04:45;5.50;99.90
55004;DHT22;40900;52.710;6.438;2023-02-01T01:07:11;5.60;99.90
55004;DHT22;40900;52.710;6.438;2023-02-01T01:09:37;5.50;99.90
55004;DHT22;40900;52.710;6.438;2023-02-01T01:12:03;5.60;99.90
55004;DHT22;40900;52.710;6.438;2023-02-01T01:14:29;5.60;99.90
55004;DHT22;40900;52.710;6.438;2023-02-01T01:16:55;5.60;99.90
55004;DHT22;40900;52.710;6.438;2023-02-01T01:19:21;5.60;99.90
55004;DHT22;40900;52.710;6.438;2023-02-01T01:21:46;5.60;99.90
55004;DHT22;40900;52.710;6.438;2023-02-01T01:24:12;5.60;99.90
55004;DHT22;40900;52.710;6.438;2023-02-01T01:26:38;5.60;99.90
55004;DHT22;40900;52.710;6.438;2023-02-01T01:29:04;5.60;99.90
55004;DHT22;40900;52.710;6.438;2023-02-01T01:31:30;5.60;99.90
55004;DHT22;40900;52.710;6.438;2023-02-01T01:33:58;5.60;99.90
55004;DHT22;40900;52.710;6.438;2023-02-01T01:36:25;5.60;99.90
55004;DHT22;40900;52.710;6.438;2023-02-01T01:38:51;5.60;99.90
55004;DHT22;40900;52.710;6.438;2023-02-01T01:41:23;5.60;99.90
55004;DHT22;40900;52.710;6.438;2023-02-01T01:43:54;5.50;99.90
55004;DHT22;40900;52.710;6.438;2023-02-01T01:46:25;5.60;99.90
55004;DHT22;40900;52.710;6.438;2023-02-01T01:49:12;5.60;99.90
55004;DHT22;40900;52.710;6.438;2023-02-01T01:51:47;5.60;99.90
55004;DHT22;40900;52.710;6.438;2023-02-01T01:54:21;5.50;99.90
55004;DHT22;40900;52.710;6.438;2023-02-01T01:56:53;5.60;99.90
55004;DHT22;40900;52.710;6.438;2023-02-01T01:59:22;5.60;99.90
55004;DHT22;40900;52.710;6.438;2023-02-01T02:01:49;5.50;99.90
55004;DHT22;40900;52.710;6.438;2023-02-01T02:04:16;5.60;99.90
55004;DHT22;40900;52.710;6.438;2023-02-01T02:06:47;5.60;99.90
55004;DHT22;40900;52.710;6.438;2023-02-01T02:09:16;5.60;99.90
55004;DHT22;40900;52.710;6.438;2023-02-01T02:11:41;5.60;99.90
55004;DHT22;40900;52.710;6.438;2023-02-01T02:14:09;5.60;99.90
55004;DHT22;40900;52.710;6.438;2023-02-01T02:28:05;5.50;99.90
55004;DHT22;40900;52.710;6.438;2023-02-01T02:33:37;5.50;99.90
55004;DHT22;40900;52.710;6.438;2023-02-01T02:39:01;5.50;99.90
55004;DHT22;40900;52.710;6.438;2023-02-01T02:41:38;5.50;99.90
55004;DHT22;40900;52.710;6.438;2023-02-01T02:44:48;5.50;99.90
55004;DHT22;40900;52.710;6.438;2023-02-01T02:50:37;5.50;99.90
55004;DHT22;40900;52.710;6.438;2023-02-01T02:53:32;5.60;99.90
55004;DHT22;40900;52.710;6.438;2023-02-01T02:56:20;5.50;99.90
55004;DHT22;40900;52.710;6.438;2023-02-01T02:59:07;5.50;99.90
55004;DHT22;40900;52.710;6.438;2023-02-01T03:01:52;5.50;99.90
55004;DHT22;40900;52.710;6.438;2023-02-01T03:04:37;5.60;99.90
55004;DHT22;40900;52.710;6.438;2023-02-01T03:10:50;5.60;99.90
55004;DHT22;40900;52.710;6.438;2023-02-01T03:16:26;5.60;99.90
55004;DHT22;40900;52.710;6.438;2023-02-01T03:19:06;5.60;99.90
55004;DHT22;40900;52.710;6.438;2023-02-01T03:21:41;5.60;99.90
55004;DHT22;40900;52.710;6.438;2023-02-01T03:24:18;5.60;99.90
55004;DHT22;40900;52.710;6.438;2023-02-01T03:26:53;5.60;99.90
55004;DHT22;40900;52.710;6.438;2023-02-01T03:29:27;5.60;99.90
55004;DHT22;40900;52.710;6.438;2023-02-01T03:31:55;5.60;99.90
55004;DHT22;40900;52.710;6.438;2023-02-01T03:34:21;5.60;99.90
55004;DHT22;40900;52.710;6.438;2023-02-01T03:37:01;5.70;99.90
55004;DHT22;40900;52.710;6.438;2023-02-01T03:39:48;5.70;99.90
55004;DHT22;40900;52.710;6.438;2023-02-01T03:42:19;5.70;99.90
55004;DHT22;40900;52.710;6.438;2023-02-01T03:45:04;5.70;99.90
55004;DHT22;40900;52.710;6.438;2023-02-01T03:47:35;5.80;99.90
55004;DHT22;40900;52.710;6.438;2023-02-01T03:50:07;5.80;99.90
55004;DHT22;40900;52.710;6.438;2023-02-01T03:52:44;5.80;99.90
55004;DHT22;40900;52.710;6.438;2023-02-01T03:55:14;5.80;99.90
55004;DHT22;40900;52.710;6.438;2023-02-01T03:57:44;5.80;99.90
55004;DHT22;40900;52.710;6.438;2023-02-01T04:02:40;5.80;99.90
55004;DHT22;40900;52.710;6.438;2023-02-01T04:05:06;5.80;99.90
55004;DHT22;40900;52.710;6.438;2023-02-01T04:07:32;5.80;99.90
55004;DHT22;40900;52.710;6.438;2023-02-01T04:09:58;5.80;99.90
55004;DHT22;40900;52.710;6.438;2023-02-01T04:12:23;5.80;99.90
55004;DHT22;40900;52.710;6.438;2023-02-01T04:14:49;5.80;99.90
55004;DHT22;40900;52.710;6.438;2023-02-01T04:17:15;5.80;99.90
55004;DHT22;40900;52.710;6.438;2023-02-01T04:19:40;5.80;99.90
55004;DHT22;40900;52.710;6.438;2023-02-01T04:22:06;5.80;99.90
55004;DHT22;40900;52.710;6.438;2023-02-01T04:24:32;5.80;99.90
55004;DHT22;40900;52.710;6.438;2023-02-01T04:26:57;5.80;99.90
55004;DHT22;40900;52.710;6.438;2023-02-01T04:29:23;5.80;99.90
55004;DHT22;40900;52.710;6.438;2023-02-01T04:31:49;5.80;99.90
55004;DHT22;40900;52.710;6.438;2023-02-01T04:34:14;5.80;99.90
55004;DHT22;40900;52.710;6.438;2023-02-01T04:36:40;5.80;99.90
55004;DHT22;40900;52.710;6.438;2023-02-01T04:39:06;5.80;99.90
55004;DHT22;40900;52.710;6.438;2023-02-01T04:41:32;5.80;99.90
55004;DHT22;40900;52.710;6.438;2023-02-01T04:43:57;5.80;99.90
55004;DHT22;40900;52.710;6.438;2023-02-01T04:46:24;5.90;99.90
55004;DHT22;40900;52.710;6.438;2023-02-01T04:48:50;5.80;99.90
55004;DHT22;40900;52.710;6.438;2023-02-01T04:51:16;5.90;99.90
55004;DHT22;40900;52.710;6.438;2023-02-01T04:53:44;5.90;99.90
55004;DHT22;40900;52.710;6.438;2023-02-01T04:56:09;5.90;99.90
55004;DHT22;40900;52.710;6.438;2023-02-01T04:58:35;5.80;99.90
55004;DHT22;40900;52.710;6.438;2023-02-01T05:01:05;5.80;99.90
55004;DHT22;40900;52.710;6.438;2023-02-01T05:03:32;5.80;99.90
55004;DHT22;40900;52.710;6.438;2023-02-01T05:05:58;5.80;99.90
55004;DHT22;40900;52.710;6.438;2023-02-01T05:08:24;5.80;99.90
55004;DHT22;40900;52.710;6.438;2023-02-01T05:10:51;5.80;99.90
55004;DHT22;40900;52.710;6.438;2023-02-01T05:13:17;5.80;99.90
55004;DHT22;40900;52.710;6.438;2023-02-01T05:16:01;5.70;99.90
55004;DHT22;40900;52.710;6.438;2023-02-01T05:18:27;5.70;99.90
55004;DHT22;40900;52.710;6.438;2023-02-01T05:20:53;5.70;99.90
55004;DHT22;40900;52.710;6.438;2023-02-01T05:23:18;5.60;99.90
55004;DHT22;40900;52.710;6.438;2023-02-01T05:25:44;5.60;99.90
55004;DHT22;40900;52.710;6.438;2023-02-01T05:28:09;5.70;99.90
55004;DHT22;40900;52.710;6.438;2023-02-01T05:30:35;5.70;99.90
55004;DHT22;40900;52.710;6.438;2023-02-01T05:33:02;5.70;99.90
55004;DHT22;40900;52.710;6.438;2023-02-01T05:35:28;5.70;99.90
55004;DHT22;40900;52.710;6.438;2023-02-01T05:37:53;5.70;99.90
55004;DHT22;40900;52.710;6.438;2023-02-01T05:40:19;5.80;99.90
55004;DHT22;40900;52.710;6.438;2023-02-01T05:42:45;5.80;99.90
55004;DHT22;40900;52.710;6.438;2023-02-01T05:45:11;5.90;99.90
55004;DHT22;40900;52.710;6.438;2023-02-01T05:47:37;5.90;99.90
55004;DHT22;40900;52.710;6.438;2023-02-01T05:50:04;5.90;99.90
55004;DHT22;40900;52.710;6.438;2023-02-01T05:52:30;5.90;99.90
55004;DHT22;40900;52.710;6.438;2023-02-01T05:54:55;5.90;99.90
55004;DHT22;40900;52.710;6.438;2023-02-01T05:57:21;5.90;99.90
55004;DHT22;40900;52.710;6.438;2023-02-01T05:59:47;5.90;99.90
55004;DHT22;40900;52.710;6.438;2023-02-01T06:02:15;6.00;99.90
55004;DHT22;40900;52.710;6.438;2023-02-01T06:04:41;6.00;99.90
55004;DHT22;40900;52.710;6.438;2023-02-01T06:07:08;6.00;99.90
55004;DHT22;40900;52.710;6.438;2023-02-01T06:09:35;6.00;99.90
55004;DHT22;40900;52.710;6.438;2023-02-01T06:12:02;6.00;99.90
55004;DHT22;40900;52.710;6.438;2023-02-01T06:14:28;6.00;99.90
55004;DHT22;40900;52.710;6.438;2023-02-01T06:16:54;6.00;99.90
55004;DHT22;40900;52.710;6.438;2023-02-01T06:19:21;6.00;99.90
55004;DHT22;40900;52.710;6.438;2023-02-01T06:21:46;6.00;99.90
55004;DHT22;40900;52.710;6.438;2023-02-01T06:24:12;6.00;99.90
55004;DHT22;40900;52.710;6.438;2023-02-01T06:26:39;6.00;99.90
55004;DHT22;40900;52.710;6.438;2023-02-01T06:29:11;6.00;99.90
55004;DHT22;40900;52.710;6.438;2023-02-01T06:31:37;6.00;99.90
55004;DHT22;40900;52.710;6.438;2023-02-01T06:34:03;6.10;99.90
55004;DHT22;40900;52.710;6.438;2023-02-01T06:36:29;6.10;99.90
55004;DHT22;40900;52.710;6.438;2023-02-01T06:38:55;6.10;99.90
55004;DHT22;40900;52.710;6.438;2023-02-01T06:41:22;6.10;99.90
55004;DHT22;40900;52.710;6.438;2023-02-01T06:43:48;6.10;99.90
55004;DHT22;40900;52.710;6.438;2023-02-01T06:46:14;6.10;99.90
55004;DHT22;40900;52.710;6.438;2023-02-01T06:48:41;6.10;99.90
55004;DHT22;40900;52.710;6.438;2023-02-01T06:51:19;6.10;99.90
55004;DHT22;40900;52.710;6.438;2023-02-01T06:53:46;6.10;99.90
55004;DHT22;40900;52.710;6.438;2023-02-01T06:56:11;6.10;99.90
55004;DHT22;40900;52.710;6.438;2023-02-01T06:58:37;6.10;99.90
55004;DHT22;40900;52.710;6.438;2023-02-01T07:01:08;6.10;99.90
55004;DHT22;40900;52.710;6.438;2023-02-01T07:03:34;6.10;99.90
55004;DHT22;40900;52.710;6.438;2023-02-01T07:06:01;6.10;99.90
55004;DHT22;40900;52.710;6.438;2023-02-01T07:08:28;6.10;99.90
55004;DHT22;40900;52.710;6.438;2023-02-01T07:10:54;6.00;99.90
55004;DHT22;40900;52.710;6.438;2023-02-01T07:13:20;6.10;99.90
55004;DHT22;40900;52.710;6.438;2023-02-01T07:15:46;6.00;99.90
55004;DHT22;40900;52.710;6.438;2023-02-01T07:18:15;6.10;99.90
55004;DHT22;40900;52.710;6.438;2023-02-01T07:20:41;6.10;99.90
55004;DHT22;40900;52.710;6.438;2023-02-01T07:23:10;6.10;99.90
55004;DHT22;40900;52.710;6.438;2023-02-01T07:25:35;6.10;99.90
55004;DHT22;40900;52.710;6.438;2023-02-01T07:28:01;6.10;99.90
55004;DHT22;40900;52.710;6.438;2023-02-01T07:30:27;6.10;99.90
55004;DHT22;40900;52.710;6.438;2023-02-01T07:32:53;6.10;99.90
55004;DHT22;40900;52.710;6.438;2023-02-01T07:35:19;6.10;99.90
55004;DHT22;40900;52.710;6.438;2023-02-01T07:37:44;6.10;99.90
55004;DHT22;40900;52.710;6.438;2023-02-01T07:40:11;6.10;99.90
55004;DHT22;40900;52.710;6.438;2023-02-01T07:42:36;6.10;99.90
55004;DHT22;40900;52.710;6.438;2023-02-01T07:45:03;6.10;99.90
55004;DHT22;40900;52.710;6.438;2023-02-01T07:47:29;6.10;99.90
55004;DHT22;40900;52.710;6.438;2023-02-01T07:49:54;6.10;99.90
55004;DHT22;40900;52.710;6.438;2023-02-01T07:52:20;6.10;99.90
55004;DHT22;40900;52.710;6.438;2023-02-01T07:54:46;6.10;99.90
55004;DHT22;40900;52.710;6.438;2023-02-01T07:57:11;6.10;99.90
55004;DHT22;40900;52.710;6.438;2023-02-01T07:59:38;6.00;99.90
55004;DHT22;40900;52.710;6.438;2023-02-01T08:02:27;6.00;99.90
55004;DHT22;40900;52.710;6.438;2023-02-01T08:04:52;6.00;99.90
55004;DHT22;40900;52.710;6.438;2023-02-01T08:07:18;6.00;99.90
55004;DHT22;40900;52.710;6.438;2023-02-01T08:09:44;6.00;99.90
55004;DHT22;40900;52.710;6.438;2023-02-01T08:12:10;6.00;99.90
55004;DHT22;40900;52.710;6.438;2023-02-01T08:14:35;6.00;99.90
55004;DHT22;40900;52.710;6.438;2023-02-01T08:17:01;6.00;99.90
55004;DHT22;40900;52.710;6.438;2023-02-01T08:19:27;6.10;99.90
55004;DHT22;40900;52.710;6.438;2023-02-01T08:21:52;6.10;99.90
55004;DHT22;40900;52.710;6.438;2023-02-01T08:24:18;6.10;99.90
55004;DHT22;40900;52.710;6.438;2023-02-01T08:26:44;6.00;99.90
55004;DHT22;40900;52.710;6.438;2023-02-01T08:29:10;6.00;99.90
55004;DHT22;40900;52.710;6.438;2023-02-01T08:31:38;5.90;99.90
55004;DHT22;40900;52.710;6.438;2023-02-01T08:34:06;6.00;99.90
55004;DHT22;40900;52.710;6.438;2023-02-01T08:36:33;6.00;99.90
55004;DHT22;40900;52.710;6.438;2023-02-01T08:39:00;6.00;99.90
55004;DHT22;40900;52.710;6.438;2023-02-01T08:41:29;6.00;99.90
55004;DHT22;40900;52.710;6.438;2023-02-01T08:43:55;6.00;99.90
55004;DHT22;40900;52.710;6.438;2023-02-01T08:46:22;6.00;99.90
55004;DHT22;40900;52.710;6.438;2023-02-01T08:48:48;6.00;99.90
55004;DHT22;40900;52.710;6.438;2023-02-01T08:51:16;6.00;99.90
55004;DHT22;40900;52.710;6.438;2023-02-01T08:53:42;6.00;99.90
55004;DHT22;40900;52.710;6.438;2023-02-01T08:56:12;6.00;99.90
55004;DHT22;40900;52.710;6.438;2023-02-01T08:58:39;6.00;99.90
55004;DHT22;40900;52.710;6.438;2023-02-01T09:01:10;6.10;99.90
55004;DHT22;40900;52.710;6.438;2023-02-01T09:03:37;6.10;99.90
55004;DHT22;40900;52.710;6.438;2023-02-01T09:06:08;6.10;99.90
55004;DHT22;40900;52.710;6.438;2023-02-01T09:08:35;6.10;99.90
55004;DHT22;40900;52.710;6.438;2023-02-01T09:11:10;6.10;99.90
55004;DHT22;40900;52.710;6.438;2023-02-01T09:13:36;6.00;99.90
55004;DHT22;40900;52.710;6.438;2023-02-01T09:16:02;6.10;99.90
55004;DHT22;40900;52.710;6.438;2023-02-01T09:18:28;6.10;99.90
55004;DHT22;40900;52.710;6.438;2023-02-01T09:20:54;6.10;99.90
55004;DHT22;40900;52.710;6.438;2023-02-01T09:23:19;6.10;99.90
55004;DHT22;40900;52.710;6.438;2023-02-01T09:25:46;6.10;99.90
55004;DHT22;40900;52.710;6.438;2023-02-01T09:28:15;6.10;99.90
55004;DHT22;40900;52.710;6.438;2023-02-01T09:30:40;6.10;99.90
55004;DHT22;40900;52.710;6.438;2023-02-01T09:33:06;6.10;99.90
55004;DHT22;40900;52.710;6.438;2023-02-01T09:35:32;6.10;99.90
55004;DHT22;40900;52.710;6.438;2023-02-01T09:37:57;6.10;99.90
55004;DHT22;40900;52.710;6.438;2023-02-01T09:40:23;6.10;99.90
55004;DHT22;40900;52.710;6.438;2023-02-01T09:45:44;6.10;99.90
55004;DHT22;40900;52.710;6.438;2023-02-01T09:48:18;6.10;99.90
55004;DHT22;40900;52.710;6.438;2023-02-01T09:50:50;6.20;99.90
55004;DHT22;40900;52.710;6.438;2023-02-01T09:53:27;6.20;99.90
55004;DHT22;40900;52.710;6.438;2023-02-01T09:55:58;6.20;99.90
55004;DHT22;40900;52.710;6.438;2023-02-01T09:58:44;6.20;99.90
55004;DHT22;40900;52.710;6.438;2023-02-01T10:01:20;6.20;99.90
55004;DHT22;40900;52.710;6.438;2023-02-01T10:03:49;6.20;99.90
55004;DHT22;40900;52.710;6.438;2023-02-01T10:22:32;6.00;99.90
55004;DHT22;40900;52.710;6.438;2023-02-01T10:25:18;6.00;99.90
55004;DHT22;40900;52.710;6.438;2023-02-01T10:27:47;6.00;99.90
55004;DHT22;40900;52.710;6.438;2023-02-01T10:32:40;6.00;99.90
55004;DHT22;40900;52.710;6.438;2023-02-01T10:35:20;6.00;99.90
55004;DHT22;40900;52.710;6.438;2023-02-01T10:37:47;6.00;99.90
55004;DHT22;40900;52.710;6.438;2023-02-01T10:40:31;6.00;99.90
55004;DHT22;40900;52.710;6.438;2023-02-01T10:42:59;6.10;99.90
55004;DHT22;40900;52.710;6.438;2023-02-01T10:45:28;6.10;99.90
55004;DHT22;40900;52.710;6.438;2023-02-01T10:47:57;6.10;99.90
55004;DHT22;40900;52.710;6.438;2023-02-01T10:53:05;6.00;99.90
55004;DHT22;40900;52.710;6.438;2023-02-01T10:58:29;5.90;99.90
55004;DHT22;40900;52.710;6.438;2023-02-01T11:01:07;5.90;99.90
55004;DHT22;40900;52.710;6.438;2023-02-01T11:06:00;5.90;99.90
55004;DHT22;40900;52.710;6.438;2023-02-01T11:08:27;5.90;99.90
55004;DHT22;40900;52.710;6.438;2023-02-01T11:11:01;5.90;99.90
55004;DHT22;40900;52.710;6.438;2023-02-01T11:13:31;6.00;99.90
55004;DHT22;40900;52.710;6.438;2023-02-01T11:16:02;6.00;99.90
55004;DHT22;40900;52.710;6.438;2023-02-01T11:18:36;6.00;99.90
55004;DHT22;40900;52.710;6.438;2023-02-01T11:21:04;6.10;99.90
55004;DHT22;40900;52.710;6.438;2023-02-01T11:23:31;6.10;99.90
55004;DHT22;40900;52.710;6.438;2023-02-01T11:26:30;6.20;99.90
55004;DHT22;40900;52.710;6.438;2023-02-01T11:29:01;6.20;99.90
55004;DHT22;40900;52.710;6.438;2023-02-01T11:31:28;6.20;99.90
55004;DHT22;40900;52.710;6.438;2023-02-01T11:34:16;6.20;99.90
55004;DHT22;40900;52.710;6.438;2023-02-01T11:36:45;6.20;99.90
55004;DHT22;40900;52.710;6.438;2023-02-01T11:44:31;6.30;99.90
55004;DHT22;40900;52.710;6.438;2023-02-01T11:47:30;6.30;99.90
55004;DHT22;40900;52.710;6.438;2023-02-01T11:50:15;6.20;99.90
55004;DHT22;40900;52.710;6.438;2023-02-01T12:06:50;6.10;99.90
55004;DHT22;40900;52.710;6.438;2023-02-01T12:20:03;6.30;99.90
55004;DHT22;40900;52.710;6.438;2023-02-01T12:34:15;6.40;99.90
55004;DHT22;40900;52.710;6.438;2023-02-01T12:37:00;6.30;99.90
55004;DHT22;40900;52.710;6.438;2023-02-01T12:42:18;6.30;99.90
55004;DHT22;40900;52.710;6.438;2023-02-01T12:44:56;6.30;99.90
55004;DHT22;40900;52.710;6.438;2023-02-01T12:47:33;6.20;99.90
55004;DHT22;40900;52.710;6.438;2023-02-01T12:50:05;6.20;99.90
55004;DHT22;40900;52.710;6.438;2023-02-01T12:52:45;6.20;99.90
55004;DHT22;40900;52.710;6.438;2023-02-01T12:58:06;6.20;99.90
55004;DHT22;40900;52.710;6.438;2023-02-01T13:01:06;6.30;99.90
55004;DHT22;40900;52.710;6.438;2023-02-01T13:04:16;6.30;99.90
55004;DHT22;40900;52.710;6.438;2023-02-01T13:06:47;6.40;99.90
55004;DHT22;40900;52.710;6.438;2023-02-01T13:11:50;6.50;99.90
55004;DHT22;40900;52.710;6.438;2023-02-01T13:14:38;6.50;99.90
55004;DHT22;40900;52.710;6.438;2023-02-01T13:17:15;6.60;99.90
55004;DHT22;40900;52.710;6.438;2023-02-01T13:22:28;6.70;99.90
55004;DHT22;40900;52.710;6.438;2023-02-01T13:25:01;6.80;99.90
55004;DHT22;40900;52.710;6.438;2023-02-01T13:27:29;6.80;99.90
55004;DHT22;40900;52.710;6.438;2023-02-01T13:30:04;6.90;99.90
55004;DHT22;40900;52.710;6.438;2023-02-01T13:38:54;7.20;99.90
55004;DHT22;40900;52.710;6.438;2023-02-01T13:41:32;7.20;99.90
55004;DHT22;40900;52.710;6.438;2023-02-01T13:44:05;7.30;99.90
55004;DHT22;40900;52.710;6.438;2023-02-01T13:46:55;7.30;99.90
55004;DHT22;40900;52.710;6.438;2023-02-01T13:49:31;7.20;99.90
55004;DHT22;40900;52.710;6.438;2023-02-01T13:51:57;7.20;99.90
55004;DHT22;40900;52.710;6.438;2023-02-01T13:56:49;7.20;99.90
55004;DHT22;40900;52.710;6.438;2023-02-01T14:05:10;7.30;99.90
55004;DHT22;40900;52.710;6.438;2023-02-01T14:07:40;7.30;99.90
55004;DHT22;40900;52.710;6.438;2023-02-01T14:13:29;7.30;99.90
55004;DHT22;40900;52.710;6.438;2023-02-01T14:21:28;7.30;99.90
55004;DHT22;40900;52.710;6.438;2023-02-01T14:24:01;7.40;99.90
55004;DHT22;40900;52.710;6.438;2023-02-01T14:31:53;7.50;99.90
55004;DHT22;40900;52.710;6.438;2023-02-01T14:40:06;7.50;99.90
55004;DHT22;40900;52.710;6.438;2023-02-01T14:42:48;7.40;99.90
55004;DHT22;40900;52.710;6.438;2023-02-01T14:47:53;7.40;99.90
55004;DHT22;40900;52.710;6.438;2023-02-01T14:55:44;7.30;99.90
55004;DHT22;40900;52.710;6.438;2023-02-01T14:58:14;7.30;99.90
55004;DHT22;40900;52.710;6.438;2023-02-01T15:09:00;7.30;99.90
55004;DHT22;40900;52.710;6.438;2023-02-01T15:11:27;7.30;99.90
55004;DHT22;40900;52.710;6.438;2023-02-01T15:13:53;7.30;99.90
55004;DHT22;40900;52.710;6.438;2023-02-01T15:16:25;7.30;99.90
55004;DHT22;40900;52.710;6.438;2023-02-01T15:19:07;7.30;99.90
55004;DHT22;40900;52.710;6.438;2023-02-01T15:21:43;7.30;99.90
55004;DHT22;40900;52.710;6.438;2023-02-01T15:24:26;7.30;99.90
55004;DHT22;40900;52.710;6.438;2023-02-01T15:26:53;7.30;99.90
55004;DHT22;40900;52.710;6.438;2023-02-01T15:29:21;7.30;99.90
55004;DHT22;40900;52.710;6.438;2023-02-01T15:31:49;7.30;99.90
55004;DHT22;40900;52.710;6.438;2023-02-01T15:34:16;7.30;99.90
55004;DHT22;40900;52.710;6.438;2023-02-01T15:36:43;7.20;99.90
55004;DHT22;40900;52.710;6.438;2023-02-01T15:42:12;7.30;99.90
55004;DHT22;40900;52.710;6.438;2023-02-01T15:44:43;7.30;99.90
55004;DHT22;40900;52.710;6.438;2023-02-01T15:47:23;7.20;99.90
55004;DHT22;40900;52.710;6.438;2023-02-01T15:49:55;7.20;99.90
55004;DHT22;40900;52.710;6.438;2023-02-01T15:55:05;7.20;99.90
55004;DHT22;40900;52.710;6.438;2023-02-01T15:57:35;7.20;99.90
55004;DHT22;40900;52.710;6.438;2023-02-01T16:00:08;7.10;99.90
55004;DHT22;40900;52.710;6.438;2023-02-01T16:02:55;7.10;99.90
55004;DHT22;40900;52.710;6.438;2023-02-01T16:10:41;7.00;99.90
55004;DHT22;40900;52.710;6.438;2023-02-01T16:13:08;7.00;99.90
55004;DHT22;40900;52.710;6.438;2023-02-01T16:15:34;7.00;99.90
55004;DHT22;40900;52.710;6.438;2023-02-01T16:18:00;7.00;99.90
55004;DHT22;40900;52.710;6.438;2023-02-01T16:20:26;7.00;99.90
55004;DHT22;40900;52.710;6.438;2023-02-01T16:22:51;6.90;99.90
55004;DHT22;40900;52.710;6.438;2023-02-01T16:25:17;6.90;99.90
55004;DHT22;40900;52.710;6.438;2023-02-01T16:27:43;6.80;99.90
55004;DHT22;40900;52.710;6.438;2023-02-01T16:30:09;6.70;99.90
55004;DHT22;40900;52.710;6.438;2023-02-01T16:32:36;6.70;99.90
55004;DHT22;40900;52.710;6.438;2023-02-01T16:35:15;6.70;99.90
55004;DHT22;40900;52.710;6.438;2023-02-01T16:37:44;6.60;99.90
55004;DHT22;40900;52.710;6.438;2023-02-01T16:40:17;6.60;99.90
55004;DHT22;40900;52.710;6.438;2023-02-01T16:42:45;6.60;99.90
55004;DHT22;40900;52.710;6.438;2023-02-01T16:45:13;6.60;99.90
55004;DHT22;40900;52.710;6.438;2023-02-01T16:47:42;6.60;99.90
55004;DHT22;40900;52.710;6.438;2023-02-01T16:50:23;6.60;99.90
55004;DHT22;40900;52.710;6.438;2023-02-01T16:52:50;6.60;99.90
55004;DHT22;40900;52.710;6.438;2023-02-01T16:55:18;6.60;99.90
55004;DHT22;40900;52.710;6.438;2023-02-01T16:57:45;6.60;99.90
55004;DHT22;40900;52.710;6.438;2023-02-01T17:00:11;6.50;99.90
55004;DHT22;40900;52.710;6.438;2023-02-01T17:02:38;6.50;99.90
55004;DHT22;40900;52.710;6.438;2023-02-01T17:05:08;6.50;99.90
55004;DHT22;40900;52.710;6.438;2023-02-01T17:07:35;6.40;99.90
55004;DHT22;40900;52.710;6.438;2023-02-01T17:10:04;6.40;99.90
55004;DHT22;40900;52.710;6.438;2023-02-01T17:12:32;6.40;99.90
55004;DHT22;40900;52.710;6.438;2023-02-01T17:14:59;6.40;99.90
55004;DHT22;40900;52.710;6.438;2023-02-01T17:17:33;6.30;99.90
55004;DHT22;40900;52.710;6.438;2023-02-01T17:20:01;6.30;99.90
55004;DHT22;40900;52.710;6.438;2023-02-01T17:22:26;6.30;99.90
55004;DHT22;40900;52.710;6.438;2023-02-01T17:24:52;6.30;99.90
55004;DHT22;40900;52.710;6.438;2023-02-01T17:27:18;6.30;99.90
55004;DHT22;40900;52.710;6.438;2023-02-01T17:29:44;6.20;99.90
55004;DHT22;40900;52.710;6.438;2023-02-01T17:32:22;6.20;99.90
55004;DHT22;40900;52.710;6.438;2023-02-01T17:34:49;6.20;99.90
55004;DHT22;40900;52.710;6.438;2023-02-01T17:37:27;6.20;99.90
55004;DHT22;40900;52.710;6.438;2023-02-01T17:39:53;6.20;99.90
55004;DHT22;40900;52.710;6.438;2023-02-01T17:42:19;6.20;99.90
55004;DHT22;40900;52.710;6.438;2023-02-01T17:44:45;6.10;99.90
55004;DHT22;40900;52.710;6.438;2023-02-01T17:47:11;6.10;99.90
55004;DHT22;40900;52.710;6.438;2023-02-01T17:49:37;6.10;99.90
55004;DHT22;40900;52.710;6.438;2023-02-01T17:52:04;6.10;99.90
55004;DHT22;40900;52.710;6.438;2023-02-01T17:54:30;6.10;99.90
55004;DHT22;40900;52.710;6.438;2023-02-01T17:56:56;6.10;99.90
55004;DHT22;40900;52.710;6.438;2023-02-01T17:59:26;6.10;99.90
55004;DHT22;40900;52.710;6.438;2023-02-01T18:01:52;6.00;99.90
55004;DHT22;40900;52.710;6.438;2023-02-01T18:04:18;6.00;99.90
55004;DHT22;40900;52.710;6.438;2023-02-01T18:06:46;6.00;99.90
55004;DHT22;40900;52.710;6.438;2023-02-01T18:09:11;6.00;99.90
55004;DHT22;40900;52.710;6.438;2023-02-01T18:11:37;6.00;99.90
55004;DHT22;40900;52.710;6.438;2023-02-01T18:14:03;6.00;99.90
55004;DHT22;40900;52.710;6.438;2023-02-01T18:16:31;6.00;99.90
55004;DHT22;40900;52.710;6.438;2023-02-01T18:18:57;6.00;99.90
55004;DHT22;40900;52.710;6.438;2023-02-01T18:21:47;5.90;99.90
55004;DHT22;40900;52.710;6.438;2023-02-01T18:24:14;5.90;99.90
55004;DHT22;40900;52.710;6.438;2023-02-01T18:26:41;5.90;99.90
55004;DHT22;40900;52.710;6.438;2023-02-01T18:29:07;5.90;99.90
55004;DHT22;40900;52.710;6.438;2023-02-01T18:31:33;6.00;99.90
55004;DHT22;40900;52.710;6.438;2023-02-01T18:34:00;5.90;99.90
55004;DHT22;40900;52.710;6.438;2023-02-01T18:36:26;5.90;99.90
55004;DHT22;40900;52.710;6.438;2023-02-01T18:38:52;5.90;99.90
55004;DHT22;40900;52.710;6.438;2023-02-01T18:41:21;5.90;99.90
55004;DHT22;40900;52.710;6.438;2023-02-01T18:43:48;5.80;99.90
55004;DHT22;40900;52.710;6.438;2023-02-01T18:46:15;5.80;99.90
55004;DHT22;40900;52.710;6.438;2023-02-01T18:48:42;5.80;99.90
55004;DHT22;40900;52.710;6.438;2023-02-01T18:51:10;5.80;99.90
55004;DHT22;40900;52.710;6.438;2023-02-01T18:53:37;5.80;99.90